Terminal Aerodrome Forecast
Issued by NWS Blacksburg, VA

Home | Current Version | Previous Version | Text Only | Print | Product List | Glossary On
Versions: 1 2 3 4 5 6 7 8 9 10 11 12 13 14 15 16 17 18 19 20 21 22 23 24 25 26 27 28 29 30 31 32 33 34 35 36 37
000
FTUS41 KRNK 281215 AAA
TAFROA
TAF AMD
KROA 281215Z 2812/0112 00000KT P6SM SCT025 BKN040
      TEMPO 2812/2814 BKN025
     FM281500 14005KT P6SM BKN025
     FM282100 12005KT P6SM OVC015
     FM010200 10003KT P6SM SCT007 OVC020=

USA.gov is the U.S. government's official web portal to all federal, state and local government web resources and services.